الصفحة الرئيسية
METAR-TAF:

METAR-TAF

مطار :

سان ديني, ريونيون

دائرة عرض: 20-53S, خط طول: 055-31E, ارتفاع: 21 متر

مراقبة الطقس الحالي

تاريخ ووقت الإصدار 34 دقيقة قبل الساعة 21:00UTC
ريح 3 عقدة من الشرق/الجنوب الشرقي
درجة الحرارة 18°درجة مئوية
الرطوبة 59%
ضغط 1020 hPa
الرؤية 10 كم أو أكثر
غيوم متفرقة على ارتفاع 5000 قدم

METAR: FMEE 052100Z AUTO 11003KT 9999 SCT050 18/10 Q1020 NOSIG

زمن: 01:34 (21:34 UTC)

توقعات

تاريخ ووقت الإصدار 4ساعات و 34 دقيقة قبل الساعة 17:00UTC
التوقعات صالحة من05 الساعة 18 UTC إلى 06 الساعة 24 UTC
ريح 15 عقدة من الجنوب الشرقي
الرؤية 10 كم أو أكثر
غيوم قليلة على ارتفاع 2000 قدم
غيوم متفرقة على ارتفاع 5000 قدم
مؤقت
من 05 الساعة 18 UTC إلى 06 الساعة 04 UTC
ريح 5 عقدة من الجنوب/الجنوب الشرقي

TAF: FMEE 051700Z 0518/0624 14015KT 9999 FEW020 SCT050 TEMPO 0518/0604 16005KT

أرصاد الطقس والتوقعات من أكثر من 4000 مطار (تقارير الطقس للمطار METAR والتنبؤ بالطقس بالمطارTAF).

المحطات المتاحة هي النقط الصفراء والحمراء على الخريطة.

حرك المؤشر فوق النقطة لمعرفة اسم المحطة.

ثم انقر لمعرفة أرصاد وتوقعات الطقس.

لتغيير الخارطة: اضغط على الأزرار الخضراء مع رمز الصليب الأسود للتكبير. على الزر الأخضر مع شرطة للتصغير، أو على الأسهم الخضراء للخرائط المجاورة.


METAR-TAF: